Haypoint, Minnesota
Current Conditions -  °F | °C
As of 3:15 PM on Friday 24 Oct 2014 (Local Time) from KGPZ Reporting Station
Clear Clear  
Wind Chill: 70°   Ceiling: Unl
Heat Index: 70°   Visibility: 10mi
Dew Point: 41°   Wind: 7mph
Humidity: 35%   Direction: 230°SW
Pressure: 29.75"   Gusts: NA
Location:  47.0392°N, 93.6273°W
Report Text: KGPZ 242015Z AUTO 23006KT 10SM CLR 21/05 A2975 RMK AO1
Loading
Personal Weather Stations






























Interactive Weather Map New forecast layout! Learn more

10-Day Weather Forecast

Advertisements
Track Severe Weather on mobile